Impacts METAR Board
IDs:

KATL - Atlanta/Hartsfield-J, GA, US

Updated at: 2000 UTC 24 Apr 2018
Potential Impact None Slight Moderate High
Time 24/08Z 24/09Z 24/10Z 24/11Z 24/12Z 24/13Z 24/14Z 24/15Z 24/16Z 24/17Z 24/18Z 24/19Z 24/20Z
Temp60 59 59 59 59 61 62 64 64 63 62 67 68
Dewpt60 59 59 59 59 60 60 60 59 61 59 59 57
Altim29.83 29.84 29.84 29.86 29.87 29.87 29.88 29.89 29.89 29.88 29.88 29.88 29.86
VIS1 1 1 1 2.5 3 9 10 10 10 9 10 10
CIG3 3 3 5 5 7 7 10 15 30 30 50 --
CoverOVCOVCOVCOVCOVCOVCBKNBKNBKNBKNOVCBKNSCT
FltCatLIFRLIFRLIFRIFRIFRIFRIFRMVFRMVFRMVFRMVFRVFRVFR
WXBRBRBR-DZ BRBR-RA BR---------RA----
WDir240280280290280290300320310270290290260
WSpd4 5 5 6 6 7 9 10 9 8 13 13 12
WGst-- -- -- -- -- -- -- -- -- -- -- 19 18
Raw hourly METARs
KATL 240758Z 24004KT 1SM R09R/P6000FT BR OVC003 16/16 A2983 RMK AO2 SFC VIS 4 TWRINC T01560156 $
KATL 240852Z 28005KT 1SM R09R/P6000FT BR OVC003 15/15 A2984 RMK AO2 SFC VIS 2 1/2 SLP100 TWRINC T01500150 55004
KATL 240952Z 28005KT 1SM R09R/P6000FT BR OVC003 15/15 A2984 RMK AO2 SFC VIS 5 SLP099 TWRINC T01500150
KATL 241052Z 29006KT 1SM R09R/P6000FT -DZ BR BKN005 OVC011 15/15 A2986 RMK AO2 SFC VIS 3 DZB19 SLP107 CIG 004V007 P0000 T01500150
KATL 241152Z 28006KT 2 1/2SM BR BKN005 BKN016 OVC050 15/15 A2987 RMK AO2 SFC VIS 4 DZE52 SLP110 CIG 004V006 BKN005 V SCT BINOVC P0001 60001 70302 T01500150 10161 20150 53008
KATL 241304Z 29007KT 3SM -RA BR BKN007 BKN010 OVC030 16/16 A2987 RMK AO2 RAB04 P0000 T01610156
KATL 241352Z 30009KT 9SM BKN007 BKN020 BKN030 17/16 A2988 RMK AO2 RAB04E17 SLP116 P0000 T01670156
KATL 241452Z 32010KT 10SM BKN010TCU BKN020 BKN030 18/16 A2989 RMK AO2 SLP117 TCU OHD & ALQDS 60000 T01780156 53008
KATL 241552Z 31009KT 10SM BKN015TCU BKN030 BKN050 18/15 A2989 RMK AO2 SLP117 TCU SE-SW-W SHRA SE-SW-W T01780150
KATL 241652Z 27008KT 10SM SCT015TCU BKN030 BKN060 17/16 A2988 RMK AO2 RAB00E33 SLP116 TCU N-NE-E-SE SHRA VC SE P0000 T01720161
KATL 241752Z 29013KT 9SM -RA SCT017TCU BKN030 OVC050 17/15 A2988 RMK AO2 RAB50 SLP115 TCU N-NE-E-SE P0000 60000 T01670150 10189 20150 58003
KATL 241852Z 29013G19KT 10SM FEW020 BKN050 BKN080 19/15 A2988 RMK AO2 RAE06 SLP113 TCU DSNT NE-SE MDT CU SW-NW SHRA DSNT NE-SE P0000 T01940150
KATL 241952Z 26012G18KT 10SM FEW025 SCT040 SCT080 20/14 A2986 RMK AO2 SLP106 MDT CU N-NE T02000139



Page loaded:  20:44 UTC  |   01:44 PM Pacific  |   02:44 PM Mountain  |   03:44 PM Central  |   04:44 PM Eastern

 

ADVISORIES

FORECASTS

FORECASTS

OBSERVATIONS

USER TOOLS

ABOUT US